createdAt,value
2022-09-28T00:02:17.874Z,12.50
2022-09-28T00:04:46.150Z,12.50
2022-09-28T00:07:14.260Z,12.50
2022-09-28T00:09:43.956Z,12.50
2022-09-28T00:12:12.128Z,12.40
2022-09-28T00:14:43.006Z,12.40
2022-09-28T00:17:12.266Z,12.40
2022-09-28T00:19:41.082Z,12.40
2022-09-28T00:22:09.219Z,12.40
2022-09-28T00:24:37.324Z,12.40
2022-09-28T00:27:07.057Z,12.40
2022-09-28T00:29:37.120Z,12.40
2022-09-28T00:32:07.718Z,12.50
2022-09-28T00:34:37.436Z,12.40
2022-09-28T00:37:08.798Z,12.60
2022-09-28T00:39:38.318Z,12.30
2022-09-28T00:42:14.431Z,12.30
2022-09-28T00:44:47.422Z,12.30
2022-09-28T00:47:31.192Z,12.30
2022-09-28T00:50:04.032Z,12.30
2022-09-28T00:52:36.216Z,12.30
2022-09-28T00:55:09.412Z,12.30
2022-09-28T00:57:40.967Z,12.30
2022-09-28T01:00:11.156Z,12.30
2022-09-28T01:02:39.454Z,12.30
2022-09-28T01:05:10.169Z,12.70
2022-09-28T01:07:39.477Z,12.30
2022-09-28T01:10:09.417Z,12.30
2022-09-28T01:12:39.146Z,12.30
2022-09-28T01:15:08.123Z,12.30
2022-09-28T01:17:47.101Z,12.30
2022-09-28T01:20:33.817Z,12.30
2022-09-28T01:24:00.134Z,12.30
2022-09-28T01:26:56.222Z,12.30
2022-09-28T01:29:37.139Z,12.30
2022-09-28T01:32:17.681Z,12.30
2022-09-28T01:34:55.710Z,12.20
2022-09-28T01:37:29.340Z,12.30
2022-09-28T01:39:59.801Z,12.20
2022-09-28T01:42:34.000Z,12.20
2022-09-28T01:45:10.522Z,12.20
2022-09-28T01:47:41.436Z,12.20
2022-09-28T01:50:14.108Z,12.20
2022-09-28T01:52:49.024Z,12.20
2022-09-28T01:55:25.212Z,12.20
2022-09-28T01:57:59.291Z,12.20
2022-09-28T02:00:28.724Z,12.20
2022-09-28T02:03:03.245Z,12.20
2022-09-28T02:05:43.088Z,12.20
2022-09-28T02:08:19.955Z,12.20
2022-09-28T02:10:53.971Z,12.20
2022-09-28T02:13:26.116Z,12.20
2022-09-28T02:15:59.396Z,12.10
2022-09-28T02:18:27.675Z,12.10
2022-09-28T02:21:02.130Z,12.10
2022-09-28T02:23:34.806Z,12.10
2022-09-28T02:26:08.140Z,12.10
2022-09-28T02:28:39.055Z,12.10
2022-09-28T02:31:08.674Z,12.10
2022-09-28T02:33:39.523Z,12.10
2022-09-28T02:36:08.315Z,12.20
2022-09-28T02:38:39.846Z,12.10
2022-09-28T02:41:15.691Z,12.10
2022-09-28T02:43:58.126Z,12.10
2022-09-28T02:46:33.752Z,12.10
2022-09-28T02:49:24.565Z,12.10
2022-09-28T02:52:10.479Z,12.10
2022-09-28T02:54:58.674Z,12.10
2022-09-28T02:57:40.081Z,12.10
2022-09-28T03:00:15.868Z,12.10
2022-09-28T03:02:55.309Z,12.10
2022-09-28T03:05:32.676Z,12.10
2022-09-28T03:08:03.180Z,12.10
2022-09-28T03:10:40.123Z,12.10
2022-09-28T03:13:09.426Z,12.10
2022-09-28T03:15:41.439Z,12.10
2022-09-28T03:18:13.046Z,12.10
2022-09-28T03:20:43.579Z,12.10
2022-09-28T03:23:24.471Z,12.10
2022-09-28T03:25:54.648Z,12.10
2022-09-28T03:28:23.678Z,12.10
2022-09-28T03:30:54.182Z,12.10
2022-09-28T03:33:23.690Z,12.10
2022-09-28T03:35:53.991Z,12.10
2022-09-28T03:38:27.873Z,12.10
2022-09-28T03:40:58.577Z,12.10
2022-09-28T03:43:29.554Z,12.10
2022-09-28T03:46:03.335Z,12.10
2022-09-28T03:48:39.257Z,12.10
2022-09-28T03:51:11.590Z,12.10
2022-09-28T03:53:41.833Z,12.10
2022-09-28T03:56:20.705Z,12.10
2022-09-28T03:58:51.192Z,12.10
2022-09-28T04:01:23.360Z,12.10
2022-09-28T04:03:56.388Z,12.10
2022-09-28T04:06:25.896Z,12.10
2022-09-28T04:08:56.656Z,12.10
2022-09-28T04:11:25.531Z,12.10
2022-09-28T04:13:55.062Z,12.10
2022-09-28T04:16:30.332Z,12.10
2022-09-28T04:19:27.326Z,12.10
2022-09-28T04:22:15.823Z,12.10
2022-09-28T04:24:47.800Z,12.10
2022-09-28T04:27:34.805Z,12.10
2022-09-28T04:30:05.149Z,12.10
2022-09-28T04:32:40.417Z,12.10
2022-09-28T04:35:13.644Z,12.10
2022-09-28T04:37:42.835Z,12.10
2022-09-28T04:40:12.775Z,12.10
2022-09-28T04:42:42.602Z,12.10
2022-09-28T04:45:15.488Z,12.00
2022-09-28T04:47:48.916Z,12.00
2022-09-28T04:50:41.347Z,12.00
2022-09-28T04:53:23.204Z,12.00
2022-09-28T04:56:01.486Z,12.00
2022-09-28T04:58:31.699Z,12.00
2022-09-28T05:01:02.666Z,12.00
2022-09-28T05:03:54.665Z,12.00
2022-09-28T05:06:37.204Z,12.00
2022-09-28T05:09:16.299Z,12.00
2022-09-28T05:11:45.665Z,12.00
2022-09-28T05:14:24.818Z,12.00
2022-09-28T05:16:54.971Z,12.00
2022-09-28T05:19:28.068Z,12.00
2022-09-28T05:22:05.550Z,12.00
2022-09-28T05:24:42.837Z,12.00
2022-09-28T05:27:15.716Z,12.00
2022-09-28T05:29:48.962Z,12.00
2022-09-28T05:32:32.776Z,12.00
2022-09-28T05:35:18.403Z,12.00
2022-09-28T05:37:49.809Z,12.00
2022-09-28T05:40:22.031Z,12.00
2022-09-28T05:42:50.845Z,12.00
2022-09-28T05:45:22.415Z,12.00
2022-09-28T05:47:54.028Z,12.00
2022-09-28T05:50:25.924Z,12.00
2022-09-28T05:53:00.125Z,12.00
2022-09-28T05:55:29.379Z,12.00
2022-09-28T05:58:00.464Z,12.00
2022-09-28T06:00:30.163Z,12.00
2022-09-28T06:03:01.402Z,12.00
2022-09-28T06:05:36.283Z,12.00
2022-09-28T06:08:06.029Z,12.00
2022-09-28T06:10:35.894Z,12.00
2022-09-28T06:13:04.769Z,12.00
2022-09-28T06:15:38.089Z,11.90
2022-09-28T06:18:10.602Z,12.00
2022-09-28T06:21:01.115Z,12.40
2022-09-28T06:23:35.523Z,12.00
2022-09-28T06:26:04.560Z,11.90
2022-09-28T06:28:33.521Z,11.90
2022-09-28T06:31:02.743Z,11.90
2022-09-28T06:33:32.717Z,11.90
2022-09-28T06:36:03.465Z,11.90
2022-09-28T06:38:32.219Z,11.90
2022-09-28T06:41:01.044Z,11.90
2022-09-28T06:43:34.255Z,11.90
2022-09-28T06:46:15.346Z,11.90
2022-09-28T06:48:54.656Z,11.90
2022-09-28T06:51:43.369Z,11.90
2022-09-28T06:54:25.939Z,11.90
2022-09-28T06:57:17.642Z,11.90
2022-09-28T06:59:46.533Z,11.90
2022-09-28T07:02:15.685Z,11.90
2022-09-28T07:05:09.620Z,11.90
2022-09-28T07:07:56.390Z,11.90
2022-09-28T07:10:44.612Z,11.90
2022-09-28T07:13:51.599Z,11.90
2022-09-28T07:16:27.443Z,11.90
2022-09-28T07:18:56.750Z,11.90
2022-09-28T07:21:29.935Z,11.90
2022-09-28T07:24:03.378Z,11.90
2022-09-28T07:26:51.089Z,11.90
2022-09-28T07:29:33.458Z,11.90
2022-09-28T07:32:20.543Z,12.00
2022-09-28T07:35:16.311Z,11.90
2022-09-28T07:37:50.631Z,12.00
2022-09-28T07:40:38.192Z,12.00
2022-09-28T07:43:06.644Z,12.00
2022-09-28T07:45:38.172Z,12.00
2022-09-28T07:48:06.876Z,12.00
2022-09-28T07:50:51.695Z,12.00
2022-09-28T07:53:40.015Z,12.00
2022-09-28T07:56:29.644Z,12.10
2022-09-28T07:59:18.732Z,12.10
2022-09-28T08:02:11.039Z,12.10
2022-09-28T08:04:40.296Z,12.10
2022-09-28T08:07:10.584Z,12.10
2022-09-28T08:09:39.290Z,12.10
2022-09-28T08:12:27.743Z,12.10
2022-09-28T08:15:18.522Z,12.10
2022-09-28T08:18:09.964Z,12.10
2022-09-28T08:20:56.705Z,12.10
2022-09-28T08:23:25.659Z,12.10
2022-09-28T08:25:55.045Z,12.10
2022-09-28T08:28:26.476Z,12.10
2022-09-28T08:31:01.760Z,12.10
2022-09-28T08:33:32.829Z,12.10
2022-09-28T08:36:39.465Z,12.20
2022-09-28T08:39:34.574Z,12.20
2022-09-28T08:42:32.559Z,12.20
2022-09-28T08:45:28.635Z,12.20
2022-09-28T08:48:52.209Z,12.20
2022-09-28T08:51:52.227Z,12.20
2022-09-28T08:54:44.097Z,12.60
2022-09-28T08:57:22.049Z,12.30
2022-09-28T08:59:53.306Z,12.30
2022-09-28T09:02:33.789Z,12.30
2022-09-28T09:05:19.102Z,12.40
2022-09-28T09:08:24.862Z,12.40
2022-09-28T09:10:57.796Z,12.40
2022-09-28T09:13:59.131Z,12.40
2022-09-28T09:16:36.817Z,12.40
2022-09-28T09:19:36.288Z,12.40
2022-09-28T09:22:37.581Z,12.40
2022-09-28T09:25:20.665Z,12.30
2022-09-28T09:28:19.378Z,12.30
2022-09-28T09:30:59.027Z,12.20
2022-09-28T09:34:08.462Z,12.30
2022-09-28T09:37:03.501Z,12.20
2022-09-28T09:40:16.320Z,12.30
2022-09-28T09:43:29.522Z,12.30
2022-09-28T09:46:25.031Z,12.30
2022-09-28T09:49:11.202Z,12.40
2022-09-28T09:51:46.070Z,12.40
2022-09-28T09:54:22.193Z,12.40
2022-09-28T09:56:55.864Z,12.50
2022-09-28T09:59:45.531Z,12.50
2022-09-28T10:02:26.137Z,12.50
2022-09-28T10:05:08.017Z,12.50
2022-09-28T10:07:44.600Z,12.60
2022-09-28T10:10:21.467Z,12.60
2022-09-28T10:12:51.745Z,12.60
2022-09-28T10:15:24.773Z,12.60
2022-09-28T10:18:22.129Z,12.60
2022-09-28T10:21:24.728Z,12.70
2022-09-28T10:24:02.918Z,12.70
2022-09-28T10:26:38.562Z,12.70
2022-09-28T10:29:16.115Z,12.70
2022-09-28T10:31:46.452Z,12.70
2022-09-28T10:34:32.047Z,12.80
2022-09-28T10:37:10.959Z,12.70
2022-09-28T10:39:58.298Z,12.80
2022-09-28T10:42:36.221Z,12.80
2022-09-28T10:45:21.073Z,12.80
2022-09-28T10:47:54.000Z,12.70
2022-09-28T10:50:25.160Z,13.00
2022-09-28T10:53:13.620Z,12.90
2022-09-28T10:56:10.832Z,13.00
2022-09-28T10:58:42.984Z,13.00
2022-09-28T11:01:19.769Z,13.00
2022-09-28T11:03:56.360Z,13.00
2022-09-28T11:06:27.101Z,13.10
2022-09-28T11:08:57.793Z,13.10
2022-09-28T11:11:26.206Z,13.10
2022-09-28T11:14:04.529Z,13.10
2022-09-28T11:16:37.599Z,13.10
2022-09-28T11:19:23.629Z,13.20
2022-09-28T11:21:52.088Z,13.20
2022-09-28T11:24:29.485Z,13.10
2022-09-28T11:27:01.036Z,13.10
2022-09-28T11:29:38.635Z,13.20
2022-09-28T11:32:23.182Z,13.20
2022-09-28T11:35:24.380Z,13.20
2022-09-28T11:38:31.252Z,13.20
2022-09-28T11:41:39.590Z,13.20
2022-09-28T11:44:32.550Z,13.30
2022-09-28T11:47:34.470Z,13.30
2022-09-28T11:50:09.903Z,13.40
2022-09-28T11:52:42.554Z,13.40
2022-09-28T11:55:16.616Z,13.40
2022-09-28T11:57:49.877Z,13.50
2022-09-28T12:00:22.237Z,13.50
2022-09-28T12:03:01.777Z,13.50
2022-09-28T12:05:34.937Z,13.50
2022-09-28T12:08:09.420Z,13.50
2022-09-28T12:11:01.127Z,13.50
2022-09-28T12:14:05.185Z,13.50
2022-09-28T12:17:04.162Z,13.50
2022-09-28T12:19:33.608Z,13.50
2022-09-28T12:22:11.524Z,13.60
2022-09-28T12:24:44.275Z,13.60
2022-09-28T12:27:18.553Z,13.60
2022-09-28T12:29:51.475Z,13.60
2022-09-28T12:32:29.377Z,13.60
2022-09-28T12:34:59.436Z,13.70
2022-09-28T12:37:54.469Z,13.70
2022-09-28T12:40:39.401Z,13.70
2022-09-28T12:43:35.109Z,13.80
2022-09-28T12:46:29.612Z,13.70
2022-09-28T12:52:10.020Z,13.70
2022-09-28T12:55:15.155Z,13.70
2022-09-28T12:58:05.283Z,13.70
2022-09-28T13:00:44.616Z,13.80
2022-09-28T13:03:29.028Z,13.80
2022-09-28T13:06:23.112Z,13.80
2022-09-28T13:09:09.055Z,13.80
2022-09-28T13:11:44.120Z,13.80
2022-09-28T13:14:41.906Z,13.90
2022-09-28T13:17:20.452Z,13.80
2022-09-28T13:19:53.921Z,13.90
2022-09-28T13:22:31.886Z,14.00
2022-09-28T13:25:08.666Z,14.00
2022-09-28T13:27:40.974Z,14.00
2022-09-28T13:30:14.655Z,14.00
2022-09-28T13:32:44.675Z,14.10
2022-09-28T13:35:16.498Z,14.00
2022-09-28T13:37:44.798Z,14.10
2022-09-28T13:40:14.856Z,14.10
2022-09-28T13:43:05.331Z,14.20
2022-09-28T13:45:56.753Z,14.20
2022-09-28T13:48:38.391Z,14.30
2022-09-28T13:51:15.659Z,14.20
2022-09-28T13:54:12.740Z,14.30
2022-09-28T13:56:50.904Z,14.30
2022-09-28T13:59:24.857Z,14.30
2022-09-28T14:02:00.702Z,14.30
2022-09-28T14:04:57.254Z,14.30
2022-09-28T14:07:58.352Z,14.40
2022-09-28T14:10:51.654Z,14.40
2022-09-28T14:14:00.851Z,14.50
2022-09-28T14:16:32.270Z,14.50
2022-09-28T14:19:07.071Z,14.50
2022-09-28T14:21:51.403Z,14.50
2022-09-28T14:24:46.032Z,14.50
2022-09-28T14:27:51.017Z,14.50
2022-09-28T14:30:24.174Z,14.50
2022-09-28T14:32:56.059Z,14.60
2022-09-28T14:35:33.800Z,14.60
2022-09-28T14:38:24.296Z,14.50
2022-09-28T14:41:10.816Z,14.50
2022-09-28T14:43:59.779Z,14.50
2022-09-28T14:46:35.485Z,14.50
2022-09-28T14:49:05.987Z,14.50
2022-09-28T14:52:03.058Z,14.40
2022-09-28T14:54:42.799Z,14.20
2022-09-28T14:57:18.341Z,14.10
2022-09-28T14:59:47.810Z,14.00
2022-09-28T15:02:25.524Z,13.90
2022-09-28T15:04:56.832Z,13.90
2022-09-28T15:07:28.820Z,13.80
2022-09-28T15:09:58.665Z,13.80
2022-09-28T15:12:29.033Z,13.80
2022-09-28T15:15:01.333Z,13.70
2022-09-28T15:17:38.478Z,13.70
2022-09-28T15:20:23.240Z,13.70
2022-09-28T15:22:57.318Z,13.70
2022-09-28T15:25:28.356Z,13.70
2022-09-28T15:27:58.648Z,13.60
2022-09-28T15:30:29.477Z,13.60
2022-09-28T15:33:21.370Z,13.60
2022-09-28T15:35:55.753Z,13.60
2022-09-28T15:38:24.247Z,13.60
2022-09-28T15:40:52.952Z,13.50
2022-09-28T15:43:28.992Z,13.50
2022-09-28T15:46:10.520Z,13.40
2022-09-28T15:48:50.976Z,13.40
2022-09-28T15:51:21.469Z,13.30
2022-09-28T15:53:58.274Z,13.30
2022-09-28T15:56:27.513Z,13.30
2022-09-28T15:59:11.078Z,13.20
2022-09-28T16:01:40.681Z,13.20
2022-09-28T16:04:39.710Z,13.20
2022-09-28T16:07:23.193Z,13.20
2022-09-28T16:10:04.616Z,13.10
2022-09-28T16:12:46.090Z,13.20
2022-09-28T16:15:20.972Z,13.10
2022-09-28T16:17:54.516Z,13.00
2022-09-28T16:20:29.144Z,13.00
2022-09-28T16:22:59.507Z,13.00
2022-09-28T16:25:28.353Z,13.00
2022-09-28T16:27:57.197Z,13.10
2022-09-28T16:30:28.726Z,13.10
2022-09-28T16:32:58.995Z,13.10
2022-09-28T16:35:31.125Z,13.10
2022-09-28T16:38:13.762Z,13.10
2022-09-28T16:40:43.227Z,13.10
2022-09-28T16:43:26.792Z,13.20
2022-09-28T16:45:57.582Z,13.20
2022-09-28T16:48:27.774Z,13.20
2022-09-28T16:50:57.410Z,13.20
2022-09-28T16:53:43.921Z,13.30
2022-09-28T16:56:13.600Z,13.20
2022-09-28T16:58:42.482Z,13.30
2022-09-28T17:01:13.412Z,13.20
2022-09-28T17:03:46.573Z,13.30
2022-09-28T17:06:17.156Z,13.30
2022-09-28T17:08:45.653Z,13.30
2022-09-28T17:11:23.701Z,13.30
2022-09-28T17:13:56.633Z,13.30
2022-09-28T17:16:49.717Z,13.30
2022-09-28T17:19:20.179Z,13.30
2022-09-28T17:21:50.865Z,13.40
2022-09-28T17:24:19.202Z,13.40
2022-09-28T17:26:50.068Z,13.40
2022-09-28T17:29:19.155Z,13.30
2022-09-28T17:31:48.550Z,13.30
2022-09-28T17:34:17.376Z,13.40
2022-09-28T17:36:46.469Z,13.30
2022-09-28T17:39:18.472Z,13.30
2022-09-28T17:41:47.168Z,13.30
2022-09-28T17:44:15.942Z,13.30
2022-09-28T17:46:48.670Z,13.30
2022-09-28T17:49:17.824Z,13.30
2022-09-28T17:51:46.088Z,13.30
2022-09-28T17:54:19.407Z,13.30
2022-09-28T17:56:47.818Z,13.30
2022-09-28T17:59:18.630Z,13.30
2022-09-28T18:01:48.191Z,13.30
2022-09-28T18:04:39.867Z,13.20
2022-09-28T18:07:05.933Z,13.20
2022-09-28T18:09:35.379Z,13.30
2022-09-28T18:12:06.401Z,13.30
2022-09-28T18:14:35.784Z,13.30
2022-09-28T18:17:04.275Z,13.20
2022-09-28T18:19:34.377Z,13.20
2022-09-28T18:22:02.641Z,13.20
2022-09-28T18:24:32.399Z,13.20
2022-09-28T18:27:02.101Z,13.20
2022-09-28T18:29:33.311Z,13.20
2022-09-28T18:32:02.516Z,13.20
2022-09-28T18:34:30.747Z,13.20
2022-09-28T18:36:58.872Z,13.20
2022-09-28T18:39:27.295Z,13.20
2022-09-28T18:41:55.728Z,13.20
2022-09-28T18:44:25.298Z,13.10
2022-09-28T18:46:53.469Z,13.20
2022-09-28T18:49:21.748Z,13.10
2022-09-28T18:51:50.297Z,13.10
2022-09-28T18:54:18.549Z,13.10
2022-09-28T18:56:46.882Z,13.10
2022-09-28T18:59:17.513Z,13.10
2022-09-28T19:01:47.341Z,13.10
2022-09-28T19:04:15.579Z,13.10
2022-09-28T19:06:44.620Z,13.10
2022-09-28T19:09:13.208Z,13.10
2022-09-28T19:11:44.459Z,13.10
2022-09-28T19:14:15.035Z,13.10
2022-09-28T19:16:45.098Z,13.10
2022-09-28T19:19:18.145Z,13.10
2022-09-28T19:21:47.278Z,13.10
2022-09-28T19:24:17.582Z,13.00
2022-09-28T19:26:46.358Z,13.00
2022-09-28T19:29:15.437Z,13.00
2022-09-28T19:31:44.364Z,13.20
2022-09-28T19:34:14.619Z,13.00
2022-09-28T19:36:43.052Z,13.00
2022-09-28T19:39:15.286Z,13.00
2022-09-28T19:41:47.903Z,13.00
2022-09-28T19:44:25.106Z,13.00
2022-09-28T19:46:56.204Z,13.00
2022-09-28T19:49:28.286Z,13.00
2022-09-28T19:52:14.970Z,13.00
2022-09-28T19:54:45.897Z,13.00
2022-09-28T19:57:15.848Z,12.90
2022-09-28T19:59:48.413Z,12.90
2022-09-28T20:02:23.009Z,12.90
2022-09-28T20:04:54.201Z,12.90
2022-09-28T20:07:22.353Z,12.90
2022-09-28T20:09:50.744Z,12.90
2022-09-28T20:12:19.949Z,12.90
2022-09-28T20:14:54.788Z,12.90
2022-09-28T20:17:23.357Z,12.90
2022-09-28T20:19:53.262Z,12.90
2022-09-28T20:22:21.590Z,12.90
2022-09-28T20:24:49.745Z,12.90
2022-09-28T20:27:18.082Z,12.90
2022-09-28T20:29:46.277Z,12.90
2022-09-28T20:32:14.637Z,12.80
2022-09-28T20:34:42.776Z,12.90
2022-09-28T20:37:13.661Z,12.90
2022-09-28T20:39:44.920Z,12.80
2022-09-28T20:42:15.563Z,12.90
2022-09-28T20:44:44.105Z,12.90
2022-09-28T20:47:12.975Z,12.80
2022-09-28T20:49:41.525Z,12.80
2022-09-28T20:52:09.807Z,12.80
2022-09-28T20:54:39.386Z,12.80
2022-09-28T20:57:17.513Z,12.80
2022-09-28T20:59:48.707Z,12.80
2022-09-28T21:02:19.391Z,12.80
2022-09-28T21:04:47.761Z,12.80
2022-09-28T21:07:15.975Z,12.80
2022-09-28T21:09:45.464Z,12.80
2022-09-28T21:12:15.313Z,12.70
2022-09-28T21:14:43.479Z,12.80
2022-09-28T21:17:11.684Z,12.80
2022-09-28T21:19:40.732Z,12.80
2022-09-28T21:22:08.912Z,12.70
2022-09-28T21:24:37.118Z,12.70
2022-09-28T21:27:06.759Z,12.70
2022-09-28T21:29:34.961Z,12.70
2022-09-28T21:32:05.995Z,12.70
2022-09-28T21:34:35.808Z,12.70
2022-09-28T21:37:04.078Z,12.70
2022-09-28T21:39:32.247Z,12.70
2022-09-28T21:42:03.542Z,12.70
2022-09-28T21:44:33.038Z,12.70
2022-09-28T21:47:01.244Z,12.60
2022-09-28T21:49:29.583Z,12.60
2022-09-28T21:51:57.702Z,12.60
2022-09-28T21:54:25.929Z,12.60
2022-09-28T21:56:54.177Z,12.60
2022-09-28T21:59:22.316Z,12.60
2022-09-28T22:01:52.699Z,12.60
2022-09-28T22:04:20.990Z,12.60
2022-09-28T22:06:49.312Z,12.60
2022-09-28T22:09:17.494Z,12.60
2022-09-28T22:11:45.649Z,12.60
2022-09-28T22:14:13.941Z,12.60
2022-09-28T22:16:43.303Z,12.60
2022-09-28T22:19:12.908Z,12.60
2022-09-28T22:21:41.320Z,12.60
2022-09-28T22:24:10.449Z,12.60
2022-09-28T22:26:39.511Z,12.60
2022-09-28T22:29:09.658Z,12.60
2022-09-28T22:31:39.730Z,12.60
2022-09-28T22:34:08.720Z,12.60
2022-09-28T22:36:38.210Z,12.60
2022-09-28T22:39:06.335Z,12.60
2022-09-28T22:41:34.830Z,12.60
2022-09-28T22:44:03.216Z,12.60
2022-09-28T22:46:32.900Z,12.70
2022-09-28T22:49:01.729Z,12.60
2022-09-28T22:51:31.211Z,12.60
2022-09-28T22:54:01.138Z,12.60
2022-09-28T22:56:30.110Z,12.60
2022-09-28T22:58:58.625Z,12.50
2022-09-28T23:01:29.127Z,12.50
2022-09-28T23:03:58.247Z,12.50
2022-09-28T23:06:28.316Z,12.50
2022-09-28T23:08:56.501Z,12.50
2022-09-28T23:11:26.358Z,12.50
2022-09-28T23:13:56.511Z,12.50
2022-09-28T23:16:26.544Z,12.50
2022-09-28T23:18:55.954Z,12.50
2022-09-28T23:21:26.697Z,12.40
2022-09-28T23:23:56.792Z,12.40
2022-09-28T23:26:28.021Z,12.40
2022-09-28T23:28:56.901Z,12.40
2022-09-28T23:31:26.533Z,12.40
2022-09-28T23:33:58.574Z,12.60
2022-09-28T23:36:27.053Z,12.40
2022-09-28T23:38:55.357Z,12.40
2022-09-28T23:41:23.811Z,12.50
2022-09-28T23:43:53.249Z,12.40
2022-09-28T23:46:21.569Z,12.40
2022-09-28T23:48:49.887Z,12.40
2022-09-28T23:51:18.129Z,12.30
2022-09-28T23:53:46.466Z,12.00
2022-09-28T23:56:15.404Z,12.30
2022-09-28T23:58:43.850Z,12.30
